Susan Ann — WCY5700 — position and weather

sailwx.info

Track history (hours):
 
Tides and Currents Weather Stations Pressure Air Temp Water Temp Dewpoint Dewpoint Depression Visibility Wind Speed Wind Dir Waves Ship Positions

Susan Ann

Owner: CROSS SOUND FERRY SERVICES INC, NEW LONDON, CT. More information available from US FCC via Universal Licensing System and Coast Guard Vessel Documentation Center.

Last reported at 2017-Sep-21 23:44 UTC. Time now 2017-Sep-23 18:35 UTC.
Position N 41°15' W 072°07'.

Length 72 m; draft 4 m.

Type: Passenger vessel. MMSI: 367354350.

Date/timePositionNaut miles runAvg speedWind from/ knotsBaromVisibWave heightAir tempDewpointWater temp
2017-Sep-21 23:44N 41°15' W 072°07'412.9
2017-Sep-21 23:24N 41°12' W 072°11'2 1.4
2017-Sep-21 22:04N 41°11' W 072°13'312.0
2017-Sep-21 21:48N 41°13' W 072°11'1 0.5
2017-Sep-21 19:35N 41°14' W 072°09'214.8
2017-Sep-21 19:27N 41°12' W 072°11'3 2.0
2017-Sep-21 18:06N 41°11' W 072°13'112.2
2017-Sep-21 18:00N 41°12' W 072°12'5 2.1
2017-Sep-21 15:45N 41°15' W 072°08'411.8
2017-Sep-21 15:23N 41°12' W 072°12'2 1.3
2017-Sep-21 14:02N 41°11' W 072°13'013.9
2017-Sep-21 14:00N 41°11' W 072°13'7 3.1
2017-Sep-21 11:52N 41°15' W 072°07'8 0.6
2017-Sep-21 00:07N 41°09' W 072°13'210.6
2017-Sep-20 23:53N 41°12' W 072°13'6 2.9
2017-Sep-20 21:51N 41°16' W 072°07'513.6
2017-Sep-20 21:30N 41°12' W 072°11'2 1.8
2017-Sep-20 20:08N 41°11' W 072°13'211.3
2017-Sep-20 19:55N 41°12' W 072°11'4 1.7
2017-Sep-20 17:43N 41°15' W 072°08'6 3.6
2017-Sep-20 16:01N 41°11' W 072°13'112.4
2017-Sep-20 15:55N 41°12' W 072°12'3 1.4
2017-Sep-20 13:41N 41°14' W 072°09'5 2.9
2017-Sep-20 12:06N 41°10' W 072°13'111.6
2017-Sep-20 12:00N 41°11' W 072°13'3 0.3
2017-Sep-19 23:33N 41°14' W 072°11'112.4
2017-Sep-19 23:30N 41°13' W 072°11'5 3.4
2017-Sep-19 22:11N 41°09' W 072°13'210.4
2017-Sep-19 22:00N 41°11' W 072°13'4 1.5
2017-Sep-19 19:36N 41°14' W 072°09'214.5
2017-Sep-19 19:27N 41°12' W 072°12'2 1.6
2017-Sep-19 18:13N 41°11' W 072°14'310.4
2017-Sep-19 17:53N 41°13' W 072°10'3 0.8
2017-Sep-19 14:02N 41°11' W 072°13'113.0
2017-Sep-19 14:00N 41°12' W 072°13'3 1.3
2017-Sep-19 11:37N 41°14' W 072°10'211.3
2017-Sep-19 11:28N 41°13' W 072°12'3 3.5
2017-Sep-19 10:34N 41°10' W 072°13'1 9.7
2017-Sep-19 10:30N 41°10' W 072°13'7 0.7
2017-Sep-19 01:10N 41°15' W 072°08'212.8
2017-Sep-19 00:59N 41°14' W 072°10'2 2.2
2017-Sep-18 23:53N 41°12' W 072°12'5 2.6
2017-Sep-18 21:51N 41°15' W 072°07'8 4.9
2017-Sep-18 20:17N 41°09' W 072°13'310.5
2017-Sep-18 20:00N 41°12' W 072°12'5 2.5
2017-Sep-18 17:47N 41°16' W 072°07'514.9
2017-Sep-18 17:27N 41°12' W 072°12'1 0.6
2017-Sep-18 16:04N 41°12' W 072°13'110.9
2017-Sep-18 15:59N 41°13' W 072°12'5 2.1
2017-Sep-18 13:50N 41°16' W 072°07'7 4.1
2017-Sep-18 12:08N 41°11' W 072°14'211.5
2017-Sep-18 12:00N 41°12' W 072°14'7 0.7
2017-Sep-18 01:54N 41°16' W 072°06'613.1
2017-Sep-18 01:28N 41°12' W 072°11'3 2.2
2017-Sep-18 00:11N 41°11' W 072°14'314.2
2017-Sep-18 00:00N 41°13' W 072°12'4 2.1
2017-Sep-17 21:54N 41°15' W 072°08'8 5.5
2017-Sep-17 20:26N 41°09' W 072°14'4 9.3
2017-Sep-17 20:00N 41°13' W 072°12'6 2.7
2017-Sep-17 17:57N 41°16' W 072°06'9 5.8
2017-Sep-17 16:26N 41°09' W 072°13'510.7
2017-Sep-17 15:59N 41°14' W 072°10'3 1.4
2017-Sep-17 13:50N 41°16' W 072°07'513.6
2017-Sep-17 13:29N 41°12' W 072°11'2 2.1
2017-Sep-17 12:21N 41°10' W 072°13'2 6.5
2017-Sep-17 12:00N 41°13' W 072°14'7 0.6
2017-Sep-16 23:55N 41°17' W 072°06'512.7
2017-Sep-16 23:31N 41°13' W 072°10'5 9.6
2017-Sep-16 23:00N 41°09' W 072°14'0 0.1
2017-Sep-16 22:15N 41°09' W 072°14'2 7.4
2017-Sep-16 21:59N 41°11' W 072°13'714.6
2017-Sep-16 21:30N 41°16' W 072°07'4 2.6
2017-Sep-16 20:09N 41°19' W 072°05'212.9
2017-Sep-16 19:59N 41°17' W 072°05'612.7
2017-Sep-16 19:30N 41°13' W 072°11'4 4.7
2017-Sep-16 18:33N 41°09' W 072°14'0 0.0
2017-Sep-16 18:30N 41°09' W 072°14'3 6.5
2017-Sep-16 18:00N 41°12' W 072°13'7 3.2
2017-Sep-16 15:51N 41°17' W 072°06'614.8
2017-Sep-16 15:28N 41°12' W 072°11'3 2.0
2017-Sep-16 14:07N 41°11' W 072°13'112.3
2017-Sep-16 14:01N 41°12' W 072°13'5 2.4
2017-Sep-16 11:45N 41°16' W 072°08'313.5
2017-Sep-16 11:30N 41°13' W 072°11'2 0.2
2017-Sep-16 01:42N 41°12' W 072°12'211.5
2017-Sep-16 01:30N 41°14' W 072°10'5 3.1
2017-Sep-15 23:55N 41°17' W 072°06'613.3
2017-Sep-15 23:26N 41°12' W 072°11'3 2.0
2017-Sep-15 22:07N 41°10' W 072°13'312.7
2017-Sep-15 21:53N 41°13' W 072°12'5 2.6
2017-Sep-15 19:53N 41°16' W 072°07'512.3
2017-Sep-15 19:29N 41°13' W 072°11'4 2.7
2017-Sep-15 18:11N 41°10' W 072°13'211.2
2017-Sep-15 18:00N 41°12' W 072°13'612.6
2017-Sep-15 17:30N 41°16' W 072°07'3 1.7
2017-Sep-15 16:01N 41°18' W 072°05'013.9
2017-Sep-15 16:00N 41°18' W 072°05'714.1
2017-Sep-15 15:29N 41°12' W 072°11'4 3.0
2017-Sep-15 14:19N 41°09' W 072°13'310.4
2017-Sep-15 13:59N 41°12' W 072°12'4 1.9
2017-Sep-15 11:44N 41°16' W 072°08'513.3
2017-Sep-15 11:23N 41°12' W 072°12'3 0.3
2017-Sep-15 00:13N 41°09' W 072°13'211.1
2017-Sep-15 00:00N 41°12' W 072°13'9 0.2
2017-Sep-12 21:57N 41°18' W 072°05'614.5
2017-Sep-12 21:31N 41°13' W 072°10'5 5.4
2017-Sep-12 20:33N 41°09' W 072°14'0 0.0
2017-Sep-12 20:28N 41°09' W 072°14'4 9.2
2017-Sep-12 20:00N 41°13' W 072°12'713.4
2017-Sep-12 19:30N 41°18' W 072°05'1 0.9
2017-Sep-12 17:57N 41°17' W 072°06'512.1
2017-Sep-12 17:30N 41°13' W 072°11'4 6.0
2017-Sep-12 16:49N 41°09' W 072°14'0 0.5
2017-Sep-12 16:15N 41°09' W 072°14'310.4
2017-Sep-12 15:56N 41°12' W 072°12'614.0
2017-Sep-12 15:30N 41°16' W 072°07'1 0.6
2017-Sep-12 13:46N 41°15' W 072°07'414.3
2017-Sep-12 13:28N 41°12' W 072°11'3 2.8
2017-Sep-12 12:17N 41°09' W 072°13'311.2
2017-Sep-12 12:00N 41°12' W 072°12'611.6
2017-Sep-12 11:30N 41°16' W 072°07'2 0.2
2017-Sep-11 23:58N 41°18' W 072°05'  
Track history (hours):
 
Tides and Currents Weather Stations Pressure Air Temp Water Temp Dewpoint Dewpoint Depression Visibility Wind Speed Wind Dir Waves Ship Positions

Susan Ann

Owner: CROSS SOUND FERRY SERVICES INC, NEW LONDON, CT. More information available from US FCC via Universal Licensing System and Coast Guard Vessel Documentation Center.

Last reported at 2017-Sep-21 23:44 UTC. Time now 2017-Sep-23 18:35 UTC.
Position N 41°15' W 072°07'.

Length 72 m; draft 4 m.

Type: Passenger vessel. MMSI: 367354350.

Date/timePositionNaut miles runAvg speedWind from/ knotsBaromVisibWave heightAir tempDewpointWater temp
2017-Sep-21 23:44N 41°15' W 072°07'412.9
2017-Sep-21 23:24N 41°12' W 072°11'2 1.4
2017-Sep-21 22:04N 41°11' W 072°13'312.0
2017-Sep-21 21:48N 41°13' W 072°11'1 0.5
2017-Sep-21 19:35N 41°14' W 072°09'214.8
2017-Sep-21 19:27N 41°12' W 072°11'3 2.0
2017-Sep-21 18:06N 41°11' W 072°13'112.2
2017-Sep-21 18:00N 41°12' W 072°12'5 2.1
2017-Sep-21 15:45N 41°15' W 072°08'411.8
2017-Sep-21 15:23N 41°12' W 072°12'2 1.3
2017-Sep-21 14:02N 41°11' W 072°13'013.9
2017-Sep-21 14:00N 41°11' W 072°13'7 3.1
2017-Sep-21 11:52N 41°15' W 072°07'8 0.6
2017-Sep-21 00:07N 41°09' W 072°13'210.6
2017-Sep-20 23:53N 41°12' W 072°13'6 2.9
2017-Sep-20 21:51N 41°16' W 072°07'513.6
2017-Sep-20 21:30N 41°12' W 072°11'2 1.8
2017-Sep-20 20:08N 41°11' W 072°13'211.3
2017-Sep-20 19:55N 41°12' W 072°11'4 1.7
2017-Sep-20 17:43N 41°15' W 072°08'6 3.6
2017-Sep-20 16:01N 41°11' W 072°13'112.4
2017-Sep-20 15:55N 41°12' W 072°12'3 1.4
2017-Sep-20 13:41N 41°14' W 072°09'5 2.9
2017-Sep-20 12:06N 41°10' W 072°13'111.6
2017-Sep-20 12:00N 41°11' W 072°13'3 0.3
2017-Sep-19 23:33N 41°14' W 072°11'112.4
2017-Sep-19 23:30N 41°13' W 072°11'5 3.4
2017-Sep-19 22:11N 41°09' W 072°13'210.4
2017-Sep-19 22:00N 41°11' W 072°13'4 1.5
2017-Sep-19 19:36N 41°14' W 072°09'214.5
2017-Sep-19 19:27N 41°12' W 072°12'2 1.6
2017-Sep-19 18:13N 41°11' W 072°14'310.4
2017-Sep-19 17:53N 41°13' W 072°10'3 0.8
2017-Sep-19 14:02N 41°11' W 072°13'113.0
2017-Sep-19 14:00N 41°12' W 072°13'3 1.3
2017-Sep-19 11:37N 41°14' W 072°10'211.3
2017-Sep-19 11:28N 41°13' W 072°12'3 3.5
2017-Sep-19 10:34N 41°10' W 072°13'1 9.7
2017-Sep-19 10:30N 41°10' W 072°13'7 0.7
2017-Sep-19 01:10N 41°15' W 072°08'212.8
2017-Sep-19 00:59N 41°14' W 072°10'2 2.2
2017-Sep-18 23:53N 41°12' W 072°12'5 2.6
2017-Sep-18 21:51N 41°15' W 072°07'8 4.9
2017-Sep-18 20:17N 41°09' W 072°13'310.5
2017-Sep-18 20:00N 41°12' W 072°12'5 2.5
2017-Sep-18 17:47N 41°16' W 072°07'514.9
2017-Sep-18 17:27N 41°12' W 072°12'1 0.6
2017-Sep-18 16:04N 41°12' W 072°13'110.9
2017-Sep-18 15:59N 41°13' W 072°12'5 2.1
2017-Sep-18 13:50N 41°16' W 072°07'7 4.1
2017-Sep-18 12:08N 41°11' W 072°14'211.5
2017-Sep-18 12:00N 41°12' W 072°14'7 0.7
2017-Sep-18 01:54N 41°16' W 072°06'613.1
2017-Sep-18 01:28N 41°12' W 072°11'3 2.2
2017-Sep-18 00:11N 41°11' W 072°14'314.2
2017-Sep-18 00:00N 41°13' W 072°12'4 2.1
2017-Sep-17 21:54N 41°15' W 072°08'8 5.5
2017-Sep-17 20:26N 41°09' W 072°14'4 9.3
2017-Sep-17 20:00N 41°13' W 072°12'6 2.7
2017-Sep-17 17:57N 41°16' W 072°06'9 5.8
2017-Sep-17 16:26N 41°09' W 072°13'510.7
2017-Sep-17 15:59N 41°14' W 072°10'3 1.4
2017-Sep-17 13:50N 41°16' W 072°07'513.6
2017-Sep-17 13:29N 41°12' W 072°11'2 2.1
2017-Sep-17 12:21N 41°10' W 072°13'2 6.5
2017-Sep-17 12:00N 41°13' W 072°14'7 0.6
2017-Sep-16 23:55N 41°17' W 072°06'512.7
2017-Sep-16 23:31N 41°13' W 072°10'5 9.6
2017-Sep-16 23:00N 41°09' W 072°14'0 0.1
2017-Sep-16 22:15N 41°09' W 072°14'2 7.4
2017-Sep-16 21:59N 41°11' W 072°13'714.6
2017-Sep-16 21:30N 41°16' W 072°07'4 2.6
2017-Sep-16 20:09N 41°19' W 072°05'212.9
2017-Sep-16 19:59N 41°17' W 072°05'612.7
2017-Sep-16 19:30N 41°13' W 072°11'4 4.7
2017-Sep-16 18:33N 41°09' W 072°14'0 0.0
2017-Sep-16 18:30N 41°09' W 072°14'3 6.5
2017-Sep-16 18:00N 41°12' W 072°13'7 3.2
2017-Sep-16 15:51N 41°17' W 072°06'614.8
2017-Sep-16 15:28N 41°12' W 072°11'3 2.0
2017-Sep-16 14:07N 41°11' W 072°13'112.3
2017-Sep-16 14:01N 41°12' W 072°13'5 2.4
2017-Sep-16 11:45N 41°16' W 072°08'313.5
2017-Sep-16 11:30N 41°13' W 072°11'2 0.2
2017-Sep-16 01:42N 41°12' W 072°12'211.5
2017-Sep-16 01:30N 41°14' W 072°10'5 3.1
2017-Sep-15 23:55N 41°17' W 072°06'613.3
2017-Sep-15 23:26N 41°12' W 072°11'3 2.0
2017-Sep-15 22:07N 41°10' W 072°13'312.7
2017-Sep-15 21:53N 41°13' W 072°12'5 2.6
2017-Sep-15 19:53N 41°16' W 072°07'512.3
2017-Sep-15 19:29N 41°13' W 072°11'4 2.7
2017-Sep-15 18:11N 41°10' W 072°13'211.2
2017-Sep-15 18:00N 41°12' W 072°13'612.6
2017-Sep-15 17:30N 41°16' W 072°07'3 1.7
2017-Sep-15 16:01N 41°18' W 072°05'013.9
2017-Sep-15 16:00N 41°18' W 072°05'714.1
2017-Sep-15 15:29N 41°12' W 072°11'4 3.0
2017-Sep-15 14:19N 41°09' W 072°13'310.4
2017-Sep-15 13:59N 41°12' W 072°12'4 1.9
2017-Sep-15 11:44N 41°16' W 072°08'513.3
2017-Sep-15 11:23N 41°12' W 072°12'3 0.3
2017-Sep-15 00:13N 41°09' W 072°13'211.1
2017-Sep-15 00:00N 41°12' W 072°13'9 0.2
2017-Sep-12 21:57N 41°18' W 072°05'614.5
2017-Sep-12 21:31N 41°13' W 072°10'5 5.4
2017-Sep-12 20:33N 41°09' W 072°14'0 0.0
2017-Sep-12 20:28N 41°09' W 072°14'4 9.2
2017-Sep-12 20:00N 41°13' W 072°12'713.4
2017-Sep-12 19:30N 41°18' W 072°05'1 0.9
2017-Sep-12 17:57N 41°17' W 072°06'512.1
2017-Sep-12 17:30N 41°13' W 072°11'4 6.0
2017-Sep-12 16:49N 41°09' W 072°14'0 0.5
2017-Sep-12 16:15N 41°09' W 072°14'310.4
2017-Sep-12 15:56N 41°12' W 072°12'614.0
2017-Sep-12 15:30N 41°16' W 072°07'1 0.6
2017-Sep-12 13:46N 41°15' W 072°07'414.3
2017-Sep-12 13:28N 41°12' W 072°11'3 2.8
2017-Sep-12 12:17N 41°09' W 072°13'311.2
2017-Sep-12 12:00N 41°12' W 072°12'611.6
2017-Sep-12 11:30N 41°16' W 072°07'2 0.2
2017-Sep-11 23:58N 41°18' W 072°05'  

Dump ship's entire track history